sensor_id;sensor_type;location;lat;lon;timestamp;temperature;humidity
30097;DHT22;16915;51.466;3.610;2022-12-29T00:01:56;10.60;99.90
30097;DHT22;16915;51.466;3.610;2022-12-29T00:04:22;10.60;99.90
30097;DHT22;16915;51.466;3.610;2022-12-29T00:06:47;10.50;99.90
30097;DHT22;16915;51.466;3.610;2022-12-29T00:09:14;10.50;99.90
30097;DHT22;16915;51.466;3.610;2022-12-29T00:11:40;10.40;99.90
30097;DHT22;16915;51.466;3.610;2022-12-29T00:14:08;10.40;99.90
30097;DHT22;16915;51.466;3.610;2022-12-29T00:16:53;10.40;99.90
30097;DHT22;16915;51.466;3.610;2022-12-29T00:19:20;10.30;99.90
30097;DHT22;16915;51.466;3.610;2022-12-29T00:22:05;10.30;99.90
30097;DHT22;16915;51.466;3.610;2022-12-29T00:24:49;10.30;99.90
30097;DHT22;16915;51.466;3.610;2022-12-29T00:27:30;10.30;99.90
30097;DHT22;16915;51.466;3.610;2022-12-29T00:30:21;10.30;99.90
30097;DHT22;16915;51.466;3.610;2022-12-29T00:33:10;10.30;99.90
30097;DHT22;16915;51.466;3.610;2022-12-29T00:36:00;10.30;99.90
30097;DHT22;16915;51.466;3.610;2022-12-29T00:38:28;10.40;99.90
30097;DHT22;16915;51.466;3.610;2022-12-29T00:41:13;10.40;99.90
30097;DHT22;16915;51.466;3.610;2022-12-29T00:43:57;10.50;99.90
30097;DHT22;16915;51.466;3.610;2022-12-29T00:46:32;10.50;99.90
30097;DHT22;16915;51.466;3.610;2022-12-29T00:48:58;10.50;99.90
30097;DHT22;16915;51.466;3.610;2022-12-29T00:51:42;10.50;99.90
30097;DHT22;16915;51.466;3.610;2022-12-29T00:54:09;10.40;99.90
30097;DHT22;16915;51.466;3.610;2022-12-29T00:56:35;10.40;99.90
30097;DHT22;16915;51.466;3.610;2022-12-29T00:59:02;10.40;99.90
30097;DHT22;16915;51.466;3.610;2022-12-29T01:01:28;10.40;99.90
30097;DHT22;16915;51.466;3.610;2022-12-29T01:03:54;10.40;99.90
30097;DHT22;16915;51.466;3.610;2022-12-29T01:06:19;10.30;99.90
30097;DHT22;16915;51.466;3.610;2022-12-29T01:08:45;10.40;99.90
30097;DHT22;16915;51.466;3.610;2022-12-29T01:11:12;10.30;99.90
30097;DHT22;16915;51.466;3.610;2022-12-29T01:13:38;10.30;99.90
30097;DHT22;16915;51.466;3.610;2022-12-29T01:16:06;10.40;99.90
30097;DHT22;16915;51.466;3.610;2022-12-29T01:18:32;10.50;99.90
30097;DHT22;16915;51.466;3.610;2022-12-29T01:21:00;10.50;99.90
30097;DHT22;16915;51.466;3.610;2022-12-29T01:23:25;10.60;99.90
30097;DHT22;16915;51.466;3.610;2022-12-29T01:25:51;10.50;99.90
30097;DHT22;16915;51.466;3.610;2022-12-29T01:28:16;10.60;99.90
30097;DHT22;16915;51.466;3.610;2022-12-29T01:30:42;10.60;99.90
30097;DHT22;16915;51.466;3.610;2022-12-29T01:33:08;10.60;99.90
30097;DHT22;16915;51.466;3.610;2022-12-29T01:35:33;10.60;99.90
30097;DHT22;16915;51.466;3.610;2022-12-29T01:37:59;10.60;99.90
30097;DHT22;16915;51.466;3.610;2022-12-29T01:40:25;10.60;99.90
30097;DHT22;16915;51.466;3.610;2022-12-29T01:42:50;10.60;99.90
30097;DHT22;16915;51.466;3.610;2022-12-29T01:45:17;10.60;99.90
30097;DHT22;16915;51.466;3.610;2022-12-29T01:47:53;10.60;99.90
30097;DHT22;16915;51.466;3.610;2022-12-29T01:50:30;10.50;99.90
30097;DHT22;16915;51.466;3.610;2022-12-29T01:53:01;10.50;99.90
30097;DHT22;16915;51.466;3.610;2022-12-29T01:55:31;10.40;99.90
30097;DHT22;16915;51.466;3.610;2022-12-29T01:58:00;10.40;99.90
30097;DHT22;16915;51.466;3.610;2022-12-29T02:00:27;10.30;99.90
30097;DHT22;16915;51.466;3.610;2022-12-29T02:02:53;10.30;99.90
30097;DHT22;16915;51.466;3.610;2022-12-29T02:05:45;10.30;99.90
30097;DHT22;16915;51.466;3.610;2022-12-29T02:08:12;10.30;99.90
30097;DHT22;16915;51.466;3.610;2022-12-29T02:10:39;10.20;99.90
30097;DHT22;16915;51.466;3.610;2022-12-29T02:13:06;10.20;99.90
30097;DHT22;16915;51.466;3.610;2022-12-29T02:16:22;10.20;99.90
30097;DHT22;16915;51.466;3.610;2022-12-29T02:46:04;10.50;99.90
30097;DHT22;16915;51.466;3.610;2022-12-29T02:48:45;10.50;99.90
30097;DHT22;16915;51.466;3.610;2022-12-29T02:51:19;10.50;99.90
30097;DHT22;16915;51.466;3.610;2022-12-29T02:53:46;10.50;99.90
30097;DHT22;16915;51.466;3.610;2022-12-29T02:56:31;10.50;99.90
30097;DHT22;16915;51.466;3.610;2022-12-29T02:58:57;10.40;99.90
30097;DHT22;16915;51.466;3.610;2022-12-29T03:07:43;10.30;99.90
30097;DHT22;16915;51.466;3.610;2022-12-29T03:10:34;10.20;99.90
30097;DHT22;16915;51.466;3.610;2022-12-29T03:16:35;10.20;99.90
30097;DHT22;16915;51.466;3.610;2022-12-29T03:19:09;10.20;99.90
30097;DHT22;16915;51.466;3.610;2022-12-29T03:21:43;10.20;99.90
30097;DHT22;16915;51.466;3.610;2022-12-29T03:24:34;10.20;99.90
30097;DHT22;16915;51.466;3.610;2022-12-29T03:27:03;10.20;99.90
30097;DHT22;16915;51.466;3.610;2022-12-29T03:29:35;10.30;99.90
30097;DHT22;16915;51.466;3.610;2022-12-29T03:32:01;10.30;99.90
30097;DHT22;16915;51.466;3.610;2022-12-29T03:34:30;10.30;99.90
30097;DHT22;16915;51.466;3.610;2022-12-29T03:37:05;10.30;99.90
30097;DHT22;16915;51.466;3.610;2022-12-29T03:39:32;10.30;99.90
30097;DHT22;16915;51.466;3.610;2022-12-29T03:42:01;10.30;99.90
30097;DHT22;16915;51.466;3.610;2022-12-29T03:44:35;10.30;99.90
30097;DHT22;16915;51.466;3.610;2022-12-29T03:47:01;10.30;99.90
30097;DHT22;16915;51.466;3.610;2022-12-29T03:49:27;10.20;99.90
30097;DHT22;16915;51.466;3.610;2022-12-29T03:51:53;10.20;99.90
30097;DHT22;16915;51.466;3.610;2022-12-29T03:54:19;10.20;99.90
30097;DHT22;16915;51.466;3.610;2022-12-29T03:56:44;10.20;99.90
30097;DHT22;16915;51.466;3.610;2022-12-29T03:59:10;10.20;99.90
30097;DHT22;16915;51.466;3.610;2022-12-29T04:01:35;10.20;99.90
30097;DHT22;16915;51.466;3.610;2022-12-29T04:04:01;10.20;99.90
30097;DHT22;16915;51.466;3.610;2022-12-29T04:06:26;10.20;99.90
30097;DHT22;16915;51.466;3.610;2022-12-29T04:08:52;10.10;99.90
30097;DHT22;16915;51.466;3.610;2022-12-29T04:11:18;10.10;99.90
30097;DHT22;16915;51.466;3.610;2022-12-29T04:13:43;10.10;99.90
30097;DHT22;16915;51.466;3.610;2022-12-29T04:16:09;10.10;99.90
30097;DHT22;16915;51.466;3.610;2022-12-29T04:18:34;10.10;99.90
30097;DHT22;16915;51.466;3.610;2022-12-29T04:21:00;10.10;99.90
30097;DHT22;16915;51.466;3.610;2022-12-29T04:23:30;10.10;99.90
30097;DHT22;16915;51.466;3.610;2022-12-29T04:25:56;10.10;99.90
30097;DHT22;16915;51.466;3.610;2022-12-29T04:28:22;10.10;99.90
30097;DHT22;16915;51.466;3.610;2022-12-29T04:30:48;10.10;99.90
30097;DHT22;16915;51.466;3.610;2022-12-29T04:33:14;10.00;99.90
30097;DHT22;16915;51.466;3.610;2022-12-29T04:35:39;10.00;99.90
30097;DHT22;16915;51.466;3.610;2022-12-29T04:38:05;10.00;99.90
30097;DHT22;16915;51.466;3.610;2022-12-29T04:40:31;10.10;99.90
30097;DHT22;16915;51.466;3.610;2022-12-29T04:42:56;10.10;99.90
30097;DHT22;16915;51.466;3.610;2022-12-29T04:45:22;10.10;99.90
30097;DHT22;16915;51.466;3.610;2022-12-29T04:47:47;10.00;99.90
30097;DHT22;16915;51.466;3.610;2022-12-29T04:50:13;10.00;99.90
30097;DHT22;16915;51.466;3.610;2022-12-29T04:52:39;10.00;99.90
30097;DHT22;16915;51.466;3.610;2022-12-29T04:55:05;10.00;99.90
30097;DHT22;16915;51.466;3.610;2022-12-29T04:57:31;10.00;99.90
30097;DHT22;16915;51.466;3.610;2022-12-29T04:59:56;10.10;99.90
30097;DHT22;16915;51.466;3.610;2022-12-29T05:02:22;10.10;99.90
30097;DHT22;16915;51.466;3.610;2022-12-29T05:04:48;10.10;99.90
30097;DHT22;16915;51.466;3.610;2022-12-29T05:07:14;10.10;99.90
30097;DHT22;16915;51.466;3.610;2022-12-29T05:09:39;10.20;99.90
30097;DHT22;16915;51.466;3.610;2022-12-29T05:12:05;10.10;99.90
30097;DHT22;16915;51.466;3.610;2022-12-29T05:14:31;10.10;99.90
30097;DHT22;16915;51.466;3.610;2022-12-29T05:16:57;10.20;99.90
30097;DHT22;16915;51.466;3.610;2022-12-29T05:19:22;10.10;99.90
30097;DHT22;16915;51.466;3.610;2022-12-29T05:21:48;10.20;99.90
30097;DHT22;16915;51.466;3.610;2022-12-29T05:24:14;10.10;99.90
30097;DHT22;16915;51.466;3.610;2022-12-29T05:26:40;10.10;99.90
30097;DHT22;16915;51.466;3.610;2022-12-29T05:29:06;10.00;99.90
30097;DHT22;16915;51.466;3.610;2022-12-29T05:31:32;9.80;99.90
30097;DHT22;16915;51.466;3.610;2022-12-29T05:33:58;9.70;99.90
30097;DHT22;16915;51.466;3.610;2022-12-29T05:36:24;9.50;99.90
30097;DHT22;16915;51.466;3.610;2022-12-29T05:38:50;9.50;99.90
30097;DHT22;16915;51.466;3.610;2022-12-29T05:41:15;9.30;99.90
30097;DHT22;16915;51.466;3.610;2022-12-29T05:43:41;9.20;99.90
30097;DHT22;16915;51.466;3.610;2022-12-29T05:46:06;9.00;99.90
30097;DHT22;16915;51.466;3.610;2022-12-29T05:48:32;8.90;99.90
30097;DHT22;16915;51.466;3.610;2022-12-29T05:50:58;8.80;99.90
30097;DHT22;16915;51.466;3.610;2022-12-29T05:53:23;8.70;99.90
30097;DHT22;16915;51.466;3.610;2022-12-29T05:55:49;8.60;99.90
30097;DHT22;16915;51.466;3.610;2022-12-29T05:58:16;8.50;99.90
30097;DHT22;16915;51.466;3.610;2022-12-29T06:00:41;8.50;99.90
30097;DHT22;16915;51.466;3.610;2022-12-29T06:03:07;8.50;99.90
30097;DHT22;16915;51.466;3.610;2022-12-29T06:05:33;8.60;99.90
30097;DHT22;16915;51.466;3.610;2022-12-29T06:07:58;8.60;99.90
30097;DHT22;16915;51.466;3.610;2022-12-29T06:10:24;8.60;99.90
30097;DHT22;16915;51.466;3.610;2022-12-29T06:12:49;8.70;99.90
30097;DHT22;16915;51.466;3.610;2022-12-29T06:15:15;8.70;99.90
30097;DHT22;16915;51.466;3.610;2022-12-29T06:17:41;8.80;99.90
30097;DHT22;16915;51.466;3.610;2022-12-29T06:20:08;8.80;99.90
30097;DHT22;16915;51.466;3.610;2022-12-29T06:22:34;8.90;99.90
30097;DHT22;16915;51.466;3.610;2022-12-29T06:24:59;9.00;99.90
30097;DHT22;16915;51.466;3.610;2022-12-29T06:27:27;9.00;99.90
30097;DHT22;16915;51.466;3.610;2022-12-29T06:29:52;9.00;99.90
30097;DHT22;16915;51.466;3.610;2022-12-29T06:32:18;9.00;99.90
30097;DHT22;16915;51.466;3.610;2022-12-29T06:34:43;9.00;99.90
30097;DHT22;16915;51.466;3.610;2022-12-29T06:37:10;9.10;99.90
30097;DHT22;16915;51.466;3.610;2022-12-29T06:39:36;9.10;99.90
30097;DHT22;16915;51.466;3.610;2022-12-29T06:42:01;9.20;99.90
30097;DHT22;16915;51.466;3.610;2022-12-29T06:44:27;9.20;99.90
30097;DHT22;16915;51.466;3.610;2022-12-29T06:46:52;9.20;99.90
30097;DHT22;16915;51.466;3.610;2022-12-29T06:49:18;9.10;99.90
30097;DHT22;16915;51.466;3.610;2022-12-29T06:51:44;9.10;99.90
30097;DHT22;16915;51.466;3.610;2022-12-29T06:54:09;9.10;99.90
30097;DHT22;16915;51.466;3.610;2022-12-29T06:56:35;9.20;99.90
30097;DHT22;16915;51.466;3.610;2022-12-29T06:59:00;9.30;99.90
30097;DHT22;16915;51.466;3.610;2022-12-29T07:01:26;9.30;99.90
30097;DHT22;16915;51.466;3.610;2022-12-29T07:03:52;9.40;99.90
30097;DHT22;16915;51.466;3.610;2022-12-29T07:06:18;9.40;99.90
30097;DHT22;16915;51.466;3.610;2022-12-29T07:08:43;9.50;99.90
30097;DHT22;16915;51.466;3.610;2022-12-29T07:11:09;9.60;99.90
30097;DHT22;16915;51.466;3.610;2022-12-29T07:13:35;9.50;99.90
30097;DHT22;16915;51.466;3.610;2022-12-29T07:16:05;9.60;99.90
30097;DHT22;16915;51.466;3.610;2022-12-29T07:18:31;9.70;99.90
30097;DHT22;16915;51.466;3.610;2022-12-29T07:20:58;9.60;99.90
30097;DHT22;16915;51.466;3.610;2022-12-29T07:23:23;9.60;99.90
30097;DHT22;16915;51.466;3.610;2022-12-29T07:25:59;9.70;99.90
30097;DHT22;16915;51.466;3.610;2022-12-29T07:28:24;9.70;99.90
30097;DHT22;16915;51.466;3.610;2022-12-29T07:30:50;9.60;99.90
30097;DHT22;16915;51.466;3.610;2022-12-29T07:33:16;9.70;99.90
30097;DHT22;16915;51.466;3.610;2022-12-29T07:35:41;9.60;99.90
30097;DHT22;16915;51.466;3.610;2022-12-29T07:38:07;9.60;99.90
30097;DHT22;16915;51.466;3.610;2022-12-29T07:40:32;9.50;99.90
30097;DHT22;16915;51.466;3.610;2022-12-29T07:42:58;9.50;99.90
30097;DHT22;16915;51.466;3.610;2022-12-29T07:45:23;9.40;99.90
30097;DHT22;16915;51.466;3.610;2022-12-29T07:47:49;9.30;99.90
30097;DHT22;16915;51.466;3.610;2022-12-29T07:50:15;9.20;99.90
30097;DHT22;16915;51.466;3.610;2022-12-29T07:52:41;9.20;99.90
30097;DHT22;16915;51.466;3.610;2022-12-29T07:55:07;9.20;99.90
30097;DHT22;16915;51.466;3.610;2022-12-29T07:57:32;9.10;99.90
30097;DHT22;16915;51.466;3.610;2022-12-29T07:59:58;9.10;99.90
30097;DHT22;16915;51.466;3.610;2022-12-29T08:02:24;9.00;99.90
30097;DHT22;16915;51.466;3.610;2022-12-29T08:04:51;8.90;99.90
30097;DHT22;16915;51.466;3.610;2022-12-29T08:07:17;8.90;99.90
30097;DHT22;16915;51.466;3.610;2022-12-29T08:09:42;8.90;99.90
30097;DHT22;16915;51.466;3.610;2022-12-29T08:12:10;8.90;99.90
30097;DHT22;16915;51.466;3.610;2022-12-29T08:14:35;8.90;99.90
30097;DHT22;16915;51.466;3.610;2022-12-29T08:17:01;8.90;99.90
30097;DHT22;16915;51.466;3.610;2022-12-29T08:19:27;8.90;99.90
30097;DHT22;16915;51.466;3.610;2022-12-29T08:21:53;8.80;99.90
30097;DHT22;16915;51.466;3.610;2022-12-29T08:24:18;8.80;99.90
30097;DHT22;16915;51.466;3.610;2022-12-29T08:26:44;8.80;99.90
30097;DHT22;16915;51.466;3.610;2022-12-29T08:29:10;8.70;99.90
30097;DHT22;16915;51.466;3.610;2022-12-29T08:31:35;8.70;99.90
30097;DHT22;16915;51.466;3.610;2022-12-29T08:34:01;8.70;99.90
30097;DHT22;16915;51.466;3.610;2022-12-29T08:36:28;8.70;99.90
30097;DHT22;16915;51.466;3.610;2022-12-29T08:38:54;8.70;99.90
30097;DHT22;16915;51.466;3.610;2022-12-29T08:41:19;8.70;99.90
30097;DHT22;16915;51.466;3.610;2022-12-29T08:43:46;8.70;99.90
30097;DHT22;16915;51.466;3.610;2022-12-29T08:46:12;8.70;99.90
30097;DHT22;16915;51.466;3.610;2022-12-29T08:48:38;8.70;99.90
30097;DHT22;16915;51.466;3.610;2022-12-29T08:51:03;8.70;99.90
30097;DHT22;16915;51.466;3.610;2022-12-29T08:53:29;8.70;99.90
30097;DHT22;16915;51.466;3.610;2022-12-29T08:55:58;8.70;99.90
30097;DHT22;16915;51.466;3.610;2022-12-29T08:58:24;8.80;99.90
30097;DHT22;16915;51.466;3.610;2022-12-29T09:00:55;8.80;99.90
30097;DHT22;16915;51.466;3.610;2022-12-29T09:03:22;8.80;99.90
30097;DHT22;16915;51.466;3.610;2022-12-29T09:05:52;8.80;99.90
30097;DHT22;16915;51.466;3.610;2022-12-29T09:08:18;8.90;99.90
30097;DHT22;16915;51.466;3.610;2022-12-29T09:10:44;8.90;99.90
30097;DHT22;16915;51.466;3.610;2022-12-29T09:13:10;9.00;99.90
30097;DHT22;16915;51.466;3.610;2022-12-29T09:15:36;9.00;99.90
30097;DHT22;16915;51.466;3.610;2022-12-29T09:18:02;9.00;99.90
30097;DHT22;16915;51.466;3.610;2022-12-29T09:20:28;9.10;99.90
30097;DHT22;16915;51.466;3.610;2022-12-29T09:22:53;9.20;99.90
30097;DHT22;16915;51.466;3.610;2022-12-29T09:25:19;9.20;99.90
30097;DHT22;16915;51.466;3.610;2022-12-29T09:27:45;9.30;99.90
30097;DHT22;16915;51.466;3.610;2022-12-29T09:30:13;9.40;99.90
30097;DHT22;16915;51.466;3.610;2022-12-29T09:32:40;9.40;99.90
30097;DHT22;16915;51.466;3.610;2022-12-29T09:35:06;9.50;99.90
30097;DHT22;16915;51.466;3.610;2022-12-29T09:37:32;9.50;99.90
30097;DHT22;16915;51.466;3.610;2022-12-29T09:39:57;9.60;99.90
30097;DHT22;16915;51.466;3.610;2022-12-29T09:42:38;9.70;99.90
30097;DHT22;16915;51.466;3.610;2022-12-29T09:47:59;9.70;99.90
30097;DHT22;16915;51.466;3.610;2022-12-29T09:50:30;9.70;99.90
30097;DHT22;16915;51.466;3.610;2022-12-29T09:53:16;9.80;99.90
30097;DHT22;16915;51.466;3.610;2022-12-29T09:55:53;9.80;99.90
30097;DHT22;16915;51.466;3.610;2022-12-29T09:58:36;9.80;99.90
30097;DHT22;16915;51.466;3.610;2022-12-29T10:01:41;9.80;99.90
30097;DHT22;16915;51.466;3.610;2022-12-29T10:04:08;9.80;99.90
30097;DHT22;16915;51.466;3.610;2022-12-29T10:06:45;9.80;99.90
30097;DHT22;16915;51.466;3.610;2022-12-29T10:09:17;9.80;99.90
30097;DHT22;16915;51.466;3.610;2022-12-29T10:12:29;9.70;99.90
30097;DHT22;16915;51.466;3.610;2022-12-29T10:23:48;9.90;99.90
30097;DHT22;16915;51.466;3.610;2022-12-29T10:26:26;10.00;99.90
30097;DHT22;16915;51.466;3.610;2022-12-29T10:29:16;9.90;99.90
30097;DHT22;16915;51.466;3.610;2022-12-29T10:31:48;9.90;99.90
30097;DHT22;16915;51.466;3.610;2022-12-29T10:34:24;9.90;99.90
30097;DHT22;16915;51.466;3.610;2022-12-29T10:36:57;9.90;99.90
30097;DHT22;16915;51.466;3.610;2022-12-29T10:39:32;9.90;99.90
30097;DHT22;16915;51.466;3.610;2022-12-29T10:42:38;9.90;99.90
30097;DHT22;16915;51.466;3.610;2022-12-29T10:45:10;10.00;99.90
30097;DHT22;16915;51.466;3.610;2022-12-29T10:47:42;10.00;99.90
30097;DHT22;16915;51.466;3.610;2022-12-29T10:50:12;10.00;99.90
30097;DHT22;16915;51.466;3.610;2022-12-29T10:52:39;9.90;99.90
30097;DHT22;16915;51.466;3.610;2022-12-29T10:55:08;9.90;99.90
30097;DHT22;16915;51.466;3.610;2022-12-29T10:57:39;9.80;99.90
30097;DHT22;16915;51.466;3.610;2022-12-29T11:00:24;9.80;99.90
30097;DHT22;16915;51.466;3.610;2022-12-29T11:05:54;9.70;99.90
30097;DHT22;16915;51.466;3.610;2022-12-29T11:08:30;9.70;99.90
30097;DHT22;16915;51.466;3.610;2022-12-29T11:11:03;9.70;99.90
30097;DHT22;16915;51.466;3.610;2022-12-29T11:13:31;9.70;99.90
30097;DHT22;16915;51.466;3.610;2022-12-29T11:15:56;9.90;99.90
30097;DHT22;16915;51.466;3.610;2022-12-29T11:18:40;9.90;99.90
30097;DHT22;16915;51.466;3.610;2022-12-29T11:24:03;10.20;99.90
30097;DHT22;16915;51.466;3.610;2022-12-29T11:26:30;10.30;99.90
30097;DHT22;16915;51.466;3.610;2022-12-29T11:31:51;10.40;99.90
30097;DHT22;16915;51.466;3.610;2022-12-29T11:34:23;10.40;99.90
30097;DHT22;16915;51.466;3.610;2022-12-29T11:36:57;10.40;99.90
30097;DHT22;16915;51.466;3.610;2022-12-29T11:39:28;10.40;99.90
30097;DHT22;16915;51.466;3.610;2022-12-29T11:41:55;10.50;99.90
30097;DHT22;16915;51.466;3.610;2022-12-29T11:44:21;10.40;99.90
30097;DHT22;16915;51.466;3.610;2022-12-29T11:46:49;10.40;99.90
30097;DHT22;16915;51.466;3.610;2022-12-29T11:49:21;10.40;99.90
30097;DHT22;16915;51.466;3.610;2022-12-29T11:51:49;10.30;99.90
30097;DHT22;16915;51.466;3.610;2022-12-29T11:54:25;10.30;99.90
30097;DHT22;16915;51.466;3.610;2022-12-29T11:56:54;10.30;99.90
30097;DHT22;16915;51.466;3.610;2022-12-29T12:04:42;10.10;99.90
30097;DHT22;16915;51.466;3.610;2022-12-29T12:07:17;10.10;99.90
30097;DHT22;16915;51.466;3.610;2022-12-29T12:09:50;10.00;99.90
30097;DHT22;16915;51.466;3.610;2022-12-29T12:12:58;9.80;99.90
30097;DHT22;16915;51.466;3.610;2022-12-29T12:15:33;9.70;99.90
30097;DHT22;16915;51.466;3.610;2022-12-29T12:18:51;9.60;99.90
30097;DHT22;16915;51.466;3.610;2022-12-29T12:20:57;9.50;99.90
30097;DHT22;16915;51.466;3.610;2022-12-29T12:26:36;9.80;99.90
30097;DHT22;16915;51.466;3.610;2022-12-29T12:29:41;9.80;99.90
30097;DHT22;16915;51.466;3.610;2022-12-29T12:32:20;9.70;99.90
30097;DHT22;16915;51.466;3.610;2022-12-29T12:34:48;9.70;99.90
30097;DHT22;16915;51.466;3.610;2022-12-29T12:43:04;9.60;99.90
30097;DHT22;16915;51.466;3.610;2022-12-29T12:48:36;9.60;99.90
30097;DHT22;16915;51.466;3.610;2022-12-29T13:00:13;9.40;99.90
30097;DHT22;16915;51.466;3.610;2022-12-29T13:05:44;9.40;99.90
30097;DHT22;16915;51.466;3.610;2022-12-29T13:11:19;9.30;99.90
30097;DHT22;16915;51.466;3.610;2022-12-29T13:27:44;9.30;99.90
30097;DHT22;16915;51.466;3.610;2022-12-29T13:30:28;9.30;99.90
30097;DHT22;16915;51.466;3.610;2022-12-29T13:33:21;9.30;99.90
30097;DHT22;16915;51.466;3.610;2022-12-29T13:36:55;9.30;99.90
30097;DHT22;16915;51.466;3.610;2022-12-29T13:42:14;9.40;99.90
30097;DHT22;16915;51.466;3.610;2022-12-29T13:44:47;9.40;99.90
30097;DHT22;16915;51.466;3.610;2022-12-29T13:50:12;9.50;99.90
30097;DHT22;16915;51.466;3.610;2022-12-29T13:52:55;9.40;99.90
30097;DHT22;16915;51.466;3.610;2022-12-29T13:55:40;9.40;99.90
30097;DHT22;16915;51.466;3.610;2022-12-29T13:58:36;9.40;99.90
30097;DHT22;16915;51.466;3.610;2022-12-29T14:01:22;9.40;99.90
30097;DHT22;16915;51.466;3.610;2022-12-29T14:03:57;9.30;99.90
30097;DHT22;16915;51.466;3.610;2022-12-29T14:06:25;9.30;99.90
30097;DHT22;16915;51.466;3.610;2022-12-29T14:08:54;9.30;99.90
30097;DHT22;16915;51.466;3.610;2022-12-29T14:11:46;9.20;99.90
30097;DHT22;16915;51.466;3.610;2022-12-29T14:14:23;9.30;99.90
30097;DHT22;16915;51.466;3.610;2022-12-29T14:16:51;9.20;99.90
30097;DHT22;16915;51.466;3.610;2022-12-29T14:19:21;9.20;99.90
30097;DHT22;16915;51.466;3.610;2022-12-29T14:22:04;9.10;99.90
30097;DHT22;16915;51.466;3.610;2022-12-29T14:27:00;9.00;99.90
30097;DHT22;16915;51.466;3.610;2022-12-29T14:31:54;8.90;99.90
30097;DHT22;16915;51.466;3.610;2022-12-29T14:39:37;8.80;99.90
30097;DHT22;16915;51.466;3.610;2022-12-29T14:42:13;8.70;99.90
30097;DHT22;16915;51.466;3.610;2022-12-29T14:44:50;8.70;99.90
30097;DHT22;16915;51.466;3.610;2022-12-29T14:47:36;8.60;99.90
30097;DHT22;16915;51.466;3.610;2022-12-29T14:50:06;8.60;99.90
30097;DHT22;16915;51.466;3.610;2022-12-29T14:52:51;8.60;99.90
30097;DHT22;16915;51.466;3.610;2022-12-29T14:58:00;8.50;99.90
30097;DHT22;16915;51.466;3.610;2022-12-29T15:00:33;8.50;99.90
30097;DHT22;16915;51.466;3.610;2022-12-29T15:05:47;8.40;99.90
30097;DHT22;16915;51.466;3.610;2022-12-29T15:08:18;8.40;99.90
30097;DHT22;16915;51.466;3.610;2022-12-29T15:11:06;8.40;99.90
30097;DHT22;16915;51.466;3.610;2022-12-29T15:13:40;8.40;99.90
30097;DHT22;16915;51.466;3.610;2022-12-29T15:18:53;8.40;99.90
30097;DHT22;16915;51.466;3.610;2022-12-29T15:21:26;8.40;99.90
30097;DHT22;16915;51.466;3.610;2022-12-29T15:23:52;8.30;99.90
30097;DHT22;16915;51.466;3.610;2022-12-29T15:26:20;8.30;99.90
30097;DHT22;16915;51.466;3.610;2022-12-29T15:28:52;8.30;99.90
30097;DHT22;16915;51.466;3.610;2022-12-29T15:31:24;8.30;99.90
30097;DHT22;16915;51.466;3.610;2022-12-29T15:33:53;8.20;99.90
30097;DHT22;16915;51.466;3.610;2022-12-29T15:36:24;8.20;99.90
30097;DHT22;16915;51.466;3.610;2022-12-29T15:38:50;8.20;99.90
30097;DHT22;16915;51.466;3.610;2022-12-29T15:41:36;8.20;99.90
30097;DHT22;16915;51.466;3.610;2022-12-29T15:46:54;8.10;99.90
30097;DHT22;16915;51.466;3.610;2022-12-29T15:49:20;8.20;99.90
30097;DHT22;16915;51.466;3.610;2022-12-29T15:51:46;8.20;99.90
30097;DHT22;16915;51.466;3.610;2022-12-29T15:54:19;8.20;99.90
30097;DHT22;16915;51.466;3.610;2022-12-29T15:56:46;8.10;99.90
30097;DHT22;16915;51.466;3.610;2022-12-29T15:59:45;8.10;99.90
30097;DHT22;16915;51.466;3.610;2022-12-29T16:02:11;8.10;99.90
30097;DHT22;16915;51.466;3.610;2022-12-29T16:04:38;8.10;99.90
30097;DHT22;16915;51.466;3.610;2022-12-29T16:07:06;8.00;99.90
30097;DHT22;16915;51.466;3.610;2022-12-29T16:09:42;8.00;99.90
30097;DHT22;16915;51.466;3.610;2022-12-29T16:12:20;8.00;99.90
30097;DHT22;16915;51.466;3.610;2022-12-29T16:14:52;7.90;99.90
30097;DHT22;16915;51.466;3.610;2022-12-29T16:17:22;7.80;99.90
30097;DHT22;16915;51.466;3.610;2022-12-29T16:19:51;7.80;99.90
30097;DHT22;16915;51.466;3.610;2022-12-29T16:22:39;7.80;99.90
30097;DHT22;16915;51.466;3.610;2022-12-29T16:25:24;7.80;99.90
30097;DHT22;16915;51.466;3.610;2022-12-29T16:27:51;7.80;99.90
30097;DHT22;16915;51.466;3.610;2022-12-29T16:30:24;7.80;99.90
30097;DHT22;16915;51.466;3.610;2022-12-29T16:32:55;7.70;99.90
30097;DHT22;16915;51.466;3.610;2022-12-29T16:38:20;7.60;99.90
30097;DHT22;16915;51.466;3.610;2022-12-29T16:40:56;7.60;99.90
30097;DHT22;16915;51.466;3.610;2022-12-29T16:43:33;7.60;99.90
30097;DHT22;16915;51.466;3.610;2022-12-29T16:48:32;7.60;99.90
30097;DHT22;16915;51.466;3.610;2022-12-29T16:53:37;7.60;99.90
30097;DHT22;16915;51.466;3.610;2022-12-29T16:56:17;7.50;99.90
30097;DHT22;16915;51.466;3.610;2022-12-29T16:58:47;7.50;99.90
30097;DHT22;16915;51.466;3.610;2022-12-29T17:01:13;7.40;99.90
30097;DHT22;16915;51.466;3.610;2022-12-29T17:03:49;7.40;99.90
30097;DHT22;16915;51.466;3.610;2022-12-29T17:06:17;7.40;99.90
30097;DHT22;16915;51.466;3.610;2022-12-29T17:08:44;7.40;99.90
30097;DHT22;16915;51.466;3.610;2022-12-29T17:16:42;7.50;99.90
30097;DHT22;16915;51.466;3.610;2022-12-29T17:19:15;7.50;99.90
30097;DHT22;16915;51.466;3.610;2022-12-29T17:21:41;7.50;99.90
30097;DHT22;16915;51.466;3.610;2022-12-29T17:24:16;7.50;99.90
30097;DHT22;16915;51.466;3.610;2022-12-29T17:26:42;7.60;99.90
30097;DHT22;16915;51.466;3.610;2022-12-29T17:29:20;7.60;99.90
30097;DHT22;16915;51.466;3.610;2022-12-29T17:31:47;7.60;99.90
30097;DHT22;16915;51.466;3.610;2022-12-29T17:34:14;7.60;99.90
30097;DHT22;16915;51.466;3.610;2022-12-29T17:36:39;7.60;99.90
30097;DHT22;16915;51.466;3.610;2022-12-29T17:39:05;7.60;99.90
30097;DHT22;16915;51.466;3.610;2022-12-29T17:41:33;7.50;99.90
30097;DHT22;16915;51.466;3.610;2022-12-29T17:44:00;7.50;99.90
30097;DHT22;16915;51.466;3.610;2022-12-29T17:46:26;7.50;99.90
30097;DHT22;16915;51.466;3.610;2022-12-29T17:48:52;7.50;99.90
30097;DHT22;16915;51.466;3.610;2022-12-29T17:51:19;7.50;99.90
30097;DHT22;16915;51.466;3.610;2022-12-29T17:53:45;7.50;99.90
30097;DHT22;16915;51.466;3.610;2022-12-29T17:56:11;7.50;99.90
30097;DHT22;16915;51.466;3.610;2022-12-29T17:58:36;7.50;99.90
30097;DHT22;16915;51.466;3.610;2022-12-29T18:01:03;7.50;99.90
30097;DHT22;16915;51.466;3.610;2022-12-29T18:03:31;7.50;99.90
30097;DHT22;16915;51.466;3.610;2022-12-29T18:05:58;7.50;99.90
30097;DHT22;16915;51.466;3.610;2022-12-29T18:08:24;7.50;99.90
30097;DHT22;16915;51.466;3.610;2022-12-29T18:10:53;7.50;99.90
30097;DHT22;16915;51.466;3.610;2022-12-29T18:13:25;7.50;99.90
30097;DHT22;16915;51.466;3.610;2022-12-29T18:15:51;7.60;99.90
30097;DHT22;16915;51.466;3.610;2022-12-29T18:18:23;7.70;99.90
30097;DHT22;16915;51.466;3.610;2022-12-29T18:20:51;7.60;99.90
30097;DHT22;16915;51.466;3.610;2022-12-29T18:23:29;7.60;99.90
30097;DHT22;16915;51.466;3.610;2022-12-29T18:26:05;7.70;99.90